Main page
METAR-TAF:

METAR-TAF

Airports :

Alexandroupoli, Greece

Alexandroupoli Airport

latitude: 40-51N, longitude: 025-55E, elevation: 7 m

Current weather observation

The report was made 3 hours and 52 minutes ago, at 19:20 UTC
Calm wind
Temperature 5°C
Humidity 87%
Pressure 1014 hPa
Visibility 10 km or more
no clouds below 1500 m and no cumulonimbus

METAR: LGAL 191920Z 00000KT CAVOK 05/03 Q1014

Time: 01:12 (23:12 UTC)

Forecast

The report was made 3 hours and 12 minutes ago, at 20:00 UTC
Forecast valid from 19 at 21 UTC to 20 at 06 UTC
Wind 5 kt from variable directions
Visibility 10 km or more
Scattered clouds at a height of 2000 ft

TAF: LGAL 192000Z 1921/2006 VRB05KT 9999 SCT020

Weather observations and forecasts of more than 4000 airports (METAR and TAF reports).

The available stations are represented by yellow and red dots on the map.

Hover mouse over dot to see the name of the station.

Then click to see weather observations and forecasts.

To change the map : click on the green buttons with a black cross to zoom in, on the green button with a dash to zoom out, or on the green arrows for adjacent maps.


METAR-TAF: